Home > Products > Valid Products > MTR

000
SAUS44 KMRX 270704 COR
MTRGDP
SPECI KGDP 270655Z AUTO 20016G20KT 3/4SM BR FEW002 BKN075 OVC100
18/17 A3028 RMK AO2 RAE53 P0000 T01830167





000
SAUS44 KMRX 270000 COR
MTRGDP
METAR KGDP 262351Z AUTO 03014KT 9SM OVC100 22/16 A3022 RMK AO2 RAE42
SLP160 P0002 60002 T02170161 10311 20206 50003





000
SAUS44 KMRX 262200 COR
MTRGDP
METAR KGDP 262151Z AUTO 04022KT 9SM -RA FEW050 SCT080 OVC100 23/15
A3021 RMK AO2 PK WND 08032/2105 RAB43 SLP151 P0000 T02330150





000
SAUS44 KMRX 262100 COR
MTRGDP
METAR KGDP 262051Z AUTO 08023G28KT 9SM CLR 28/14 A3021 RMK AO2 PK
WND 09028/2043 WSHFT 1951 SLP143 T02780144 58018





000
SAUS44 KMRX 262020 COR
MTRGDP
SPECI KGDP 262011Z AUTO 11021G27KT 9SM FEW040 SCT048 BKN060 28/15
A3024 RMK AO2 PK WND 11027/2010 WSHFT 1951 T02780150





000
SAUS44 KMRX 252359 COR
MTRGDP
METAR KGDP 252351Z AUTO 05018KT 9SM FEW070 FEW080 OVC110 24/12 A3017
RMK AO2 PK WND 07030/2318 WSHFT 2250 SLP136 T02390122 10333 20239
53002





000
SAUS44 KMRX 251759 COR
MTRGDP
METAR KGDP 251751Z AUTO 25017G24KT 9SM OVC085 27/11 A3021 RMK AO2 PK
WND 24027/1713 SLP139 60000 T02670111 10272 20200 50003





000
SAUS44 KMRX 242059 COR
MTRGDP
METAR KGDP 242051Z AUTO 24019KT 10SM FEW120 33/11 A3012 RMK AO2 PK
WND 25030/2018 SLP102 T03280106 58017





    US Dept of Commerce
    National Oceanic and Atmospheric Administration
    National Weather Service
    1325 East West Highway
    Silver Spring, MD 20910
    Page Author: NWS Internet Services Team
Disclaimer
Information Quality
Credits
Glossary
Privacy Policy
Freedom of Information Act (FOIA)
About Us
Career Opportunities